Acapulco Jet — IWUM — position and weather

sailwx.info

Track history (hours):
 
Tides and Currents Weather Stations Pressure Air Temp Water Temp Dewpoint Dewpoint Depression Visibility Wind Speed Wind Dir Waves Ship Positions

Acapulco Jet

Last reported at 2017-Dec-01 08:17 UTC. Time now 2018-Jan-21 16:53 UTC.
Position N 40°49' E 014°15'.
Warning: this ship's position is 51 days out of date.

Length 35 m; draft 1.2 m.

Type: High speed craft. MMSI: 247050100.

Date/timePositionNaut miles runAvg speedWind from/ knotsBaromVisibWave heightAir tempDewpointWater temp
2017-Dec-01 08:17N 40°49' E 014°15'3 2.1
2017-Dec-01 06:53N 40°47' E 014°12'1 0.0
2017-Nov-29 15:19N 40°47' E 014°11'3 2.5
2017-Nov-29 13:59N 40°49' E 014°15'3 1.6
2017-Nov-29 12:25N 40°47' E 014°12'2 0.6
2017-Nov-29 08:21N 40°48' E 014°15'2 0.2
2017-Nov-28 19:35N 40°47' E 014°12'0 0.2
2017-Nov-28 17:13N 40°47' E 014°12'3 3.6
2017-Nov-28 16:24N 40°49' E 014°15'3 1.8
2017-Nov-28 14:50N 40°47' E 014°12'1 0.8
2017-Nov-28 13:28N 40°48' E 014°13'1 0.4
2017-Nov-28 11:15N 40°47' E 014°12'0 0.1
2017-Nov-28 08:59N 40°47' E 014°12'3 4.1
2017-Nov-28 08:19N 40°48' E 014°15'3 1.9
2017-Nov-28 06:51N 40°47' E 014°12'0 0.0
2017-Nov-27 19:36N 40°47' E 014°12'2 3.0
2017-Nov-27 18:47N 40°48' E 014°14'3 1.8
2017-Nov-27 17:13N 40°47' E 014°11'1 1.6
2017-Nov-27 16:19N 40°48' E 014°13'1 0.5
2017-Nov-27 14:47N 40°47' E 014°12'2 1.8
2017-Nov-27 13:31N 40°48' E 014°14'130.7
2017-Nov-27 13:30N 40°48' E 014°14'1 1.2
2017-Nov-27 12:12N 40°47' E 014°12'3 0.8
2017-Nov-27 08:24N 40°48' E 014°16'2 0.1
2017-Nov-26 15:48N 40°48' E 014°13'3 1.8
2017-Nov-26 14:02N 40°47' E 014°09'322.6
2017-Nov-26 13:55N 40°47' E 014°13'1 0.2
2017-Nov-26 11:23N 40°47' E 014°12'1 0.4
2017-Nov-26 09:14N 40°47' E 014°11'3 2.9
2017-Nov-26 08:18N 40°49' E 014°14'2 0.2
2017-Nov-25 16:40N 40°47' E 014°12'0 0.1
2017-Nov-25 13:28N 40°47' E 014°12'0 0.1
2017-Nov-25 11:15N 40°47' E 014°12'0 0.1
2017-Nov-25 09:01N 40°47' E 014°12'130.4
2017-Nov-25 08:59N 40°48' E 014°13'1 2.1
2017-Nov-25 08:17N 40°48' E 014°15'3 0.2
2017-Nov-24 13:54N 40°47' E 014°12'3 0.5
2017-Nov-24 06:45N 40°49' E 014°16'2 0.1
2017-Nov-23 16:34N 40°48' E 014°13'2 2.2
2017-Nov-23 15:49N 40°48' E 014°15'0 0.0
2017-Nov-23 06:49N 40°49' E 014°15'  
Track history (hours):
 
Tides and Currents Weather Stations Pressure Air Temp Water Temp Dewpoint Dewpoint Depression Visibility Wind Speed Wind Dir Waves Ship Positions

Acapulco Jet

Last reported at 2017-Dec-01 08:17 UTC. Time now 2018-Jan-21 16:53 UTC.
Position N 40°49' E 014°15'.
Warning: this ship's position is 51 days out of date.

Length 35 m; draft 1.2 m.

Type: High speed craft. MMSI: 247050100.

Date/timePositionNaut miles runAvg speedWind from/ knotsBaromVisibWave heightAir tempDewpointWater temp
2017-Dec-01 08:17N 40°49' E 014°15'3 2.1
2017-Dec-01 06:53N 40°47' E 014°12'1 0.0
2017-Nov-29 15:19N 40°47' E 014°11'3 2.5
2017-Nov-29 13:59N 40°49' E 014°15'3 1.6
2017-Nov-29 12:25N 40°47' E 014°12'2 0.6
2017-Nov-29 08:21N 40°48' E 014°15'2 0.2
2017-Nov-28 19:35N 40°47' E 014°12'0 0.2
2017-Nov-28 17:13N 40°47' E 014°12'3 3.6
2017-Nov-28 16:24N 40°49' E 014°15'3 1.8
2017-Nov-28 14:50N 40°47' E 014°12'1 0.8
2017-Nov-28 13:28N 40°48' E 014°13'1 0.4
2017-Nov-28 11:15N 40°47' E 014°12'0 0.1
2017-Nov-28 08:59N 40°47' E 014°12'3 4.1
2017-Nov-28 08:19N 40°48' E 014°15'3 1.9
2017-Nov-28 06:51N 40°47' E 014°12'0 0.0
2017-Nov-27 19:36N 40°47' E 014°12'2 3.0
2017-Nov-27 18:47N 40°48' E 014°14'3 1.8
2017-Nov-27 17:13N 40°47' E 014°11'1 1.6
2017-Nov-27 16:19N 40°48' E 014°13'1 0.5
2017-Nov-27 14:47N 40°47' E 014°12'2 1.8
2017-Nov-27 13:31N 40°48' E 014°14'130.7
2017-Nov-27 13:30N 40°48' E 014°14'1 1.2
2017-Nov-27 12:12N 40°47' E 014°12'3 0.8
2017-Nov-27 08:24N 40°48' E 014°16'2 0.1
2017-Nov-26 15:48N 40°48' E 014°13'3 1.8
2017-Nov-26 14:02N 40°47' E 014°09'322.6
2017-Nov-26 13:55N 40°47' E 014°13'1 0.2
2017-Nov-26 11:23N 40°47' E 014°12'1 0.4
2017-Nov-26 09:14N 40°47' E 014°11'3 2.9
2017-Nov-26 08:18N 40°49' E 014°14'2 0.2
2017-Nov-25 16:40N 40°47' E 014°12'0 0.1
2017-Nov-25 13:28N 40°47' E 014°12'0 0.1
2017-Nov-25 11:15N 40°47' E 014°12'0 0.1
2017-Nov-25 09:01N 40°47' E 014°12'130.4
2017-Nov-25 08:59N 40°48' E 014°13'1 2.1
2017-Nov-25 08:17N 40°48' E 014°15'3 0.2
2017-Nov-24 13:54N 40°47' E 014°12'3 0.5
2017-Nov-24 06:45N 40°49' E 014°16'2 0.1
2017-Nov-23 16:34N 40°48' E 014°13'2 2.2
2017-Nov-23 15:49N 40°48' E 014°15'0 0.0
2017-Nov-23 06:49N 40°49' E 014°15'  

Dump ship's entire track history